Weather at Manassas Regional Airport/Harry P. Davis Field

Public forecast

Using degrees Fahrenheit for public forecast. Weather courtesy of forecast.io.

Current aviation weather report (METAR) for Manassas Regional Airport/Harry P. Davis Field

Retrieved 2020/10/25 23:28 UTC (31 minutes ago):

KHEF 252328Z 02006KT 4SM -RA BR BKN004 OVC008 08/07 A3022 RMK AO2 CIG 003V007 PNO

Closest aviation forecast (TAF) to Manassas Regional Airport/Harry P. Davis Field

Closest forecast is Washington Dulles International Airport, 13.7 nm (25.3 km) NNE. Retrieved 2020/10/25 18:30 UTC (5 hours ago):

TAF KIAD 251729Z 2518/2624 03008KT P6SM -RA BKN010 FM252100 02006KT 5SM -RA BR OVC010 FM260000 01005KT 4SM -DZ BR OVC005 FM261200 33005KT 3SM -DZ BR OVC003 FM261500 33004KT P6SM OVC003 FM261800 VRB03KT P6SM BKN050